createdAt,value
2017-12-26T00:00:32.617Z,4.10
2017-12-26T00:03:00.733Z,4.32
2017-12-26T00:05:28.889Z,5.10
2017-12-26T00:07:57.008Z,4.25
2017-12-26T00:10:25.155Z,4.00
2017-12-26T00:12:53.282Z,4.12
2017-12-26T00:15:21.428Z,4.40
2017-12-26T00:17:49.551Z,4.20
2017-12-26T00:20:17.689Z,4.60
2017-12-26T00:22:45.813Z,4.70
2017-12-26T00:25:13.966Z,4.22
2017-12-26T00:27:42.095Z,5.05
2017-12-26T00:30:10.235Z,4.35
2017-12-26T00:32:38.357Z,3.78
2017-12-26T00:35:06.510Z,3.67
2017-12-26T00:37:34.625Z,4.05
2017-12-26T00:40:02.773Z,3.95
2017-12-26T00:42:30.905Z,4.30
2017-12-26T00:44:59.052Z,3.85
2017-12-26T00:47:27.169Z,3.53
2017-12-26T00:49:55.322Z,3.62
2017-12-26T00:52:23.443Z,4.15
2017-12-26T00:54:51.609Z,4.22
2017-12-26T00:57:19.725Z,3.42
2017-12-26T00:59:47.851Z,3.90
2017-12-26T01:02:15.995Z,4.53
2017-12-26T01:04:44.114Z,4.57
2017-12-26T01:07:13.025Z,4.75
2017-12-26T01:09:41.157Z,4.20
2017-12-26T01:12:09.299Z,4.62
2017-12-26T01:14:37.421Z,3.47
2017-12-26T01:17:05.566Z,3.20
2017-12-26T01:19:33.686Z,3.55
2017-12-26T01:22:01.834Z,4.00
2017-12-26T01:24:29.958Z,4.50
2017-12-26T01:26:58.103Z,3.75
2017-12-26T01:29:26.229Z,5.07
2017-12-26T01:31:54.378Z,3.92
2017-12-26T01:34:22.605Z,5.55
2017-12-26T01:36:50.754Z,3.85
2017-12-26T01:39:18.891Z,3.55
2017-12-26T01:41:47.041Z,2.92
2017-12-26T01:44:15.925Z,5.32
2017-12-26T01:46:44.847Z,5.25
2017-12-26T01:49:12.974Z,5.65
2017-12-26T01:51:41.125Z,4.10
2017-12-26T01:54:09.246Z,5.07
2017-12-26T01:56:38.169Z,5.18
2017-12-26T01:59:06.299Z,5.00
2017-12-26T02:01:35.190Z,6.12
2017-12-26T02:04:03.334Z,6.18
2017-12-26T02:06:31.457Z,5.05
2017-12-26T02:09:00.460Z,4.18
2017-12-26T02:11:28.578Z,5.78
2017-12-26T02:13:56.746Z,5.03
2017-12-26T02:16:24.873Z,4.90
2017-12-26T02:18:53.023Z,5.45
2017-12-26T02:21:21.913Z,5.22
2017-12-26T02:23:50.064Z,5.30
2017-12-26T02:26:18.187Z,5.05
2017-12-26T02:28:46.329Z,4.85
2017-12-26T02:31:14.454Z,4.95
2017-12-26T02:33:42.612Z,4.53
2017-12-26T02:36:10.739Z,4.93
2017-12-26T02:38:38.886Z,5.10
2017-12-26T02:41:07.011Z,6.45
2017-12-26T02:43:35.158Z,6.75
2017-12-26T02:46:03.284Z,6.12
2017-12-26T02:48:31.431Z,6.60
2017-12-26T02:51:00.318Z,7.10
2017-12-26T02:53:28.471Z,7.32
2017-12-26T02:55:56.598Z,7.03
2017-12-26T02:58:24.753Z,7.15
2017-12-26T03:00:52.885Z,6.75
2017-12-26T03:03:21.042Z,6.55
2017-12-26T03:05:49.162Z,5.30
2017-12-26T03:08:17.298Z,7.05
2017-12-26T03:10:45.448Z,6.50
2017-12-26T03:13:13.574Z,6.12
2017-12-26T03:15:41.721Z,8.05
2017-12-26T03:18:09.847Z,7.43
2017-12-26T03:20:37.999Z,8.35
2017-12-26T03:23:06.125Z,7.43
2017-12-26T03:25:34.272Z,7.40
2017-12-26T03:28:02.395Z,7.72
2017-12-26T03:30:30.555Z,8.80
2017-12-26T03:32:58.675Z,7.05
2017-12-26T03:35:26.826Z,8.30
2017-12-26T03:37:54.954Z,10.98
2017-12-26T03:40:23.100Z,9.30
2017-12-26T03:42:51.226Z,10.75
2017-12-26T03:45:19.381Z,7.97
2017-12-26T03:47:47.509Z,10.60
2017-12-26T03:50:15.668Z,10.82
2017-12-26T03:52:44.559Z,12.55
2017-12-26T03:55:12.709Z,10.88
2017-12-26T03:57:40.841Z,13.50
2017-12-26T04:00:09.006Z,11.15
2017-12-26T04:02:37.134Z,13.77
2017-12-26T04:05:05.262Z,8.20
2017-12-26T04:07:33.417Z,11.77
2017-12-26T04:10:01.546Z,12.40
2017-12-26T04:12:29.700Z,12.32
2017-12-26T04:14:57.823Z,12.57
2017-12-26T04:17:25.981Z,12.00
2017-12-26T04:19:54.886Z,12.70
2017-12-26T04:22:23.051Z,12.10
2017-12-26T04:24:51.951Z,11.85
2017-12-26T04:27:20.101Z,10.10
2017-12-26T04:29:48.236Z,13.00
2017-12-26T04:32:16.396Z,14.68
2017-12-26T04:34:44.517Z,11.98
2017-12-26T04:37:12.673Z,12.45
2017-12-26T04:39:40.802Z,10.07
2017-12-26T04:42:08.957Z,12.30
2017-12-26T04:44:37.089Z,13.30
2017-12-26T04:47:05.237Z,13.45
2017-12-26T04:49:33.373Z,11.40
2017-12-26T04:52:02.297Z,13.77
2017-12-26T04:54:30.425Z,11.60
2017-12-26T04:56:58.583Z,11.85
2017-12-26T04:59:26.709Z,9.20
2017-12-26T05:01:54.854Z,10.82
2017-12-26T05:04:22.977Z,10.18
2017-12-26T05:06:51.153Z,11.35
2017-12-26T05:09:19.283Z,11.65
2017-12-26T05:11:47.409Z,10.05
2017-12-26T05:14:15.564Z,13.70
2017-12-26T05:16:43.696Z,11.55
2017-12-26T05:19:12.616Z,10.07
2017-12-26T05:21:40.742Z,9.60
2017-12-26T05:24:08.897Z,10.60
2017-12-26T05:26:37.030Z,11.20
2017-12-26T05:29:05.178Z,10.20
2017-12-26T05:31:33.303Z,10.02
2017-12-26T05:34:01.454Z,10.27
2017-12-26T05:36:29.574Z,8.30
2017-12-26T05:38:57.721Z,11.90
2017-12-26T05:41:25.861Z,11.12
2017-12-26T05:43:54.018Z,11.18
2017-12-26T05:46:22.912Z,10.02
2017-12-26T05:48:51.067Z,10.52
2017-12-26T05:51:19.189Z,11.10
2017-12-26T05:53:47.352Z,11.35
2017-12-26T05:56:15.473Z,12.75
2017-12-26T05:58:43.630Z,12.60
2017-12-26T06:01:11.759Z,10.77
2017-12-26T06:03:40.691Z,11.77
2017-12-26T06:06:08.817Z,11.73
2017-12-26T06:08:37.734Z,9.80
2017-12-26T06:11:05.863Z,12.82
2017-12-26T06:13:34.017Z,11.57
2017-12-26T06:16:02.148Z,13.75
2017-12-26T06:18:30.303Z,13.13
2017-12-26T06:20:58.438Z,12.98
2017-12-26T06:23:26.610Z,10.55
2017-12-26T06:25:54.746Z,14.52
2017-12-26T06:28:22.873Z,11.12
2017-12-26T06:30:51.027Z,13.45
2017-12-26T06:33:19.156Z,12.32
2017-12-26T06:35:47.305Z,12.02
2017-12-26T06:38:15.441Z,14.50
2017-12-26T06:40:43.601Z,12.27
2017-12-26T06:43:11.751Z,13.60
2017-12-26T06:45:39.901Z,13.23
2017-12-26T06:48:08.042Z,13.70
2017-12-26T06:50:36.193Z,14.55
2017-12-26T06:53:04.325Z,13.25
2017-12-26T06:55:33.242Z,13.82
2017-12-26T06:58:01.369Z,15.77
2017-12-26T07:00:29.522Z,13.48
2017-12-26T07:02:57.653Z,13.15
2017-12-26T07:05:25.804Z,11.52
2017-12-26T07:07:53.934Z,12.77
2017-12-26T07:10:22.091Z,13.20
2017-12-26T07:12:50.218Z,11.95
2017-12-26T07:15:18.382Z,14.25
2017-12-26T07:17:46.510Z,10.25
2017-12-26T07:23:19.543Z,13.23
2017-12-26T07:25:47.692Z,13.20
2017-12-26T07:28:15.825Z,13.90
2017-12-26T07:30:43.982Z,11.18
2017-12-26T07:33:12.105Z,14.05
2017-12-26T07:35:40.256Z,14.15
2017-12-26T07:38:09.146Z,10.05
2017-12-26T07:40:37.318Z,17.42
2017-12-26T07:43:06.211Z,16.05
2017-12-26T07:45:34.342Z,12.05
2017-12-26T07:48:02.505Z,12.98
2017-12-26T07:50:30.634Z,12.80
2017-12-26T07:52:58.778Z,12.40
2017-12-26T07:55:26.916Z,10.77
2017-12-26T07:57:55.082Z,12.80
2017-12-26T08:00:23.204Z,15.07
2017-12-26T08:02:51.356Z,11.68
2017-12-26T08:05:19.495Z,12.15
2017-12-26T08:07:47.650Z,12.05
2017-12-26T08:10:16.551Z,15.15
2017-12-26T08:12:44.705Z,13.68
2017-12-26T08:15:13.605Z,12.80
2017-12-26T08:17:41.757Z,12.15
2017-12-26T08:20:09.894Z,11.77
2017-12-26T08:22:38.071Z,13.00
2017-12-26T08:25:06.207Z,12.52
2017-12-26T08:27:34.361Z,11.82
2017-12-26T08:30:03.265Z,13.32
2017-12-26T08:32:31.421Z,10.38
2017-12-26T08:35:00.318Z,11.73
2017-12-26T08:37:28.473Z,12.55
2017-12-26T08:39:56.597Z,11.73
2017-12-26T08:42:24.769Z,12.73
2017-12-26T08:44:52.898Z,12.73
2017-12-26T08:47:21.025Z,10.65
2017-12-26T08:49:49.182Z,10.93
2017-12-26T08:52:17.314Z,12.95
2017-12-26T08:54:45.504Z,11.20
2017-12-26T08:57:13.664Z,11.75
2017-12-26T08:59:41.827Z,10.60
2017-12-26T09:02:09.975Z,9.70
2017-12-26T09:04:38.130Z,11.02
2017-12-26T09:07:06.266Z,15.90
2017-12-26T09:09:35.190Z,12.93
2017-12-26T09:12:03.322Z,11.05
2017-12-26T09:14:31.481Z,12.25
2017-12-26T09:16:59.613Z,12.43
2017-12-26T09:19:27.763Z,10.20
2017-12-26T09:21:55.890Z,9.88
2017-12-26T09:24:24.050Z,11.75
2017-12-26T09:26:52.179Z,10.25
2017-12-26T09:29:20.334Z,10.13
2017-12-26T09:31:48.471Z,11.48
2017-12-26T09:34:16.621Z,11.07
2017-12-26T09:36:44.750Z,10.48
2017-12-26T09:39:12.918Z,11.95
2017-12-26T09:41:41.050Z,10.30
2017-12-26T09:44:09.216Z,12.00
2017-12-26T09:46:37.356Z,10.63
2017-12-26T09:49:05.515Z,11.32
2017-12-26T09:51:33.638Z,10.43
2017-12-26T09:54:01.807Z,8.27
2017-12-26T09:56:29.978Z,10.20
2017-12-26T09:58:58.113Z,8.90
2017-12-26T10:01:26.258Z,10.40
2017-12-26T10:03:54.415Z,9.55
2017-12-26T10:06:22.535Z,9.18
2017-12-26T10:08:50.693Z,9.15
2017-12-26T10:11:18.822Z,10.02
2017-12-26T10:13:46.946Z,7.87
2017-12-26T10:16:15.100Z,8.80
2017-12-26T10:18:43.224Z,8.40
2017-12-26T10:21:11.392Z,9.70
2017-12-26T10:23:39.525Z,10.15
2017-12-26T10:26:07.680Z,8.50
2017-12-26T10:28:35.813Z,7.85
2017-12-26T10:31:04.744Z,8.18
2017-12-26T10:33:32.891Z,9.10
2017-12-26T10:36:01.047Z,8.77
2017-12-26T10:38:29.175Z,8.68
2017-12-26T10:40:57.347Z,7.22
2017-12-26T10:43:25.479Z,7.97
2017-12-26T10:45:53.659Z,9.57
2017-12-26T10:48:21.782Z,8.18
2017-12-26T10:50:49.935Z,8.90
2017-12-26T10:53:18.067Z,9.02
2017-12-26T10:55:46.223Z,9.50
2017-12-26T10:58:14.350Z,7.82
2017-12-26T11:00:42.503Z,8.38
2017-12-26T11:03:10.625Z,8.68
2017-12-26T11:05:38.780Z,8.35
2017-12-26T11:08:06.911Z,8.00
2017-12-26T11:10:35.081Z,6.68
2017-12-26T11:13:03.974Z,8.00
2017-12-26T11:15:32.895Z,8.15
2017-12-26T11:18:01.027Z,8.95
2017-12-26T11:20:29.950Z,8.35
2017-12-26T11:22:58.082Z,6.37
2017-12-26T11:25:26.242Z,7.22
2017-12-26T11:27:54.371Z,8.75
2017-12-26T11:30:22.523Z,7.40
2017-12-26T11:32:50.659Z,7.70
2017-12-26T11:35:18.809Z,8.60
2017-12-26T11:37:46.939Z,6.37
2017-12-26T11:40:15.878Z,11.30
2017-12-26T11:42:44.022Z,8.65
2017-12-26T11:45:12.186Z,7.95
2017-12-26T11:47:40.318Z,8.07
2017-12-26T11:50:08.485Z,8.30
2017-12-26T11:52:36.859Z,11.32
2017-12-26T11:55:05.040Z,7.60
2017-12-26T11:57:33.165Z,7.60
2017-12-26T12:00:01.325Z,8.00
2017-12-26T12:02:29.466Z,9.10
2017-12-26T12:04:57.629Z,7.47
2017-12-26T12:07:25.850Z,7.80
2017-12-26T12:09:54.023Z,8.18
2017-12-26T12:12:22.923Z,6.65
2017-12-26T12:14:51.070Z,8.30
2017-12-26T12:17:19.967Z,9.93
2017-12-26T12:19:48.124Z,8.40
2017-12-26T12:22:16.254Z,6.00
2017-12-26T12:24:44.427Z,7.40
2017-12-26T12:27:12.554Z,7.62
2017-12-26T12:29:40.742Z,7.90
2017-12-26T12:32:09.659Z,6.68
2017-12-26T12:34:37.822Z,6.00
2017-12-26T12:37:05.961Z,6.57
2017-12-26T12:39:34.114Z,7.35
2017-12-26T12:42:02.243Z,6.53
2017-12-26T12:44:30.370Z,7.20
2017-12-26T12:46:58.566Z,7.60
2017-12-26T12:49:26.695Z,7.85
2017-12-26T12:51:54.859Z,7.72
2017-12-26T12:54:22.999Z,8.00
2017-12-26T12:56:51.918Z,9.82
2017-12-26T12:59:20.050Z,6.15
2017-12-26T13:01:48.972Z,7.90
2017-12-26T13:04:17.162Z,5.78
2017-12-26T13:06:45.354Z,5.82
2017-12-26T13:09:13.486Z,5.97
2017-12-26T13:11:41.650Z,5.15
2017-12-26T13:14:09.783Z,5.10
2017-12-26T13:16:37.970Z,5.95
2017-12-26T13:19:06.119Z,5.35
2017-12-26T13:21:34.298Z,5.28
2017-12-26T13:24:02.425Z,3.97
2017-12-26T13:26:30.588Z,5.70
2017-12-26T13:28:58.735Z,4.70
2017-12-26T13:31:26.891Z,4.57
2017-12-26T13:33:55.018Z,4.30
2017-12-26T13:36:23.166Z,4.10
2017-12-26T13:38:51.312Z,3.22
2017-12-26T13:41:19.464Z,4.07
2017-12-26T13:43:47.697Z,3.90
2017-12-26T13:46:15.850Z,2.95
2017-12-26T13:48:43.980Z,3.85
2017-12-26T13:51:12.134Z,3.37
2017-12-26T13:53:40.270Z,3.22
2017-12-26T13:56:08.439Z,3.37
2017-12-26T13:58:37.022Z,4.32
2017-12-26T14:01:06.001Z,3.30
2017-12-26T14:03:34.239Z,3.28
2017-12-26T14:06:02.417Z,2.70
2017-12-26T14:08:30.547Z,3.62
2017-12-26T14:10:58.705Z,3.17
2017-12-26T14:13:26.833Z,3.28
2017-12-26T14:15:54.990Z,3.67
2017-12-26T14:18:23.114Z,2.92
2017-12-26T14:20:51.269Z,3.05
2017-12-26T14:23:19.392Z,2.58
2017-12-26T14:25:47.545Z,2.28
2017-12-26T14:28:15.680Z,2.90
2017-12-26T14:30:43.831Z,2.50
2017-12-26T14:33:11.954Z,2.60
2017-12-26T14:35:40.102Z,2.00
2017-12-26T14:38:08.224Z,2.50
2017-12-26T14:40:36.376Z,2.58
2017-12-26T14:43:04.498Z,2.22
2017-12-26T14:45:32.663Z,2.30
2017-12-26T14:48:01.555Z,2.78
2017-12-26T14:50:29.709Z,3.00
2017-12-26T14:52:57.834Z,2.25
2017-12-26T14:55:25.995Z,1.80
2017-12-26T14:57:54.117Z,1.98
2017-12-26T15:00:22.271Z,2.10
2017-12-26T15:02:50.402Z,2.65
2017-12-26T15:05:19.313Z,5.07
2017-12-26T15:07:47.442Z,2.00
2017-12-26T15:10:15.594Z,2.35
2017-12-26T15:12:43.713Z,1.98
2017-12-26T15:15:11.845Z,2.03
2017-12-26T15:17:40.002Z,2.00
2017-12-26T15:20:08.201Z,1.90
2017-12-26T15:22:36.361Z,2.62
2017-12-26T15:25:04.481Z,2.37
2017-12-26T15:27:32.641Z,2.47
2017-12-26T15:30:01.539Z,2.72
2017-12-26T15:32:30.457Z,2.80
2017-12-26T15:34:58.582Z,3.17
2017-12-26T15:37:26.730Z,2.50
2017-12-26T15:39:54.849Z,2.45
2017-12-26T15:42:23.766Z,2.47
2017-12-26T15:44:51.886Z,3.72
2017-12-26T15:47:20.034Z,2.87
2017-12-26T15:49:48.168Z,2.17
2017-12-26T15:52:16.323Z,3.15
2017-12-26T15:54:44.443Z,2.33
2017-12-26T15:57:12.597Z,2.55
2017-12-26T15:59:40.723Z,2.60
2017-12-26T16:02:08.870Z,2.20
2017-12-26T16:04:36.995Z,2.95
2017-12-26T16:07:05.154Z,3.15
2017-12-26T16:09:33.281Z,2.90
2017-12-26T16:12:01.433Z,2.83
2017-12-26T16:14:29.558Z,3.25
2017-12-26T16:16:57.724Z,2.58
2017-12-26T16:19:25.855Z,2.60
2017-12-26T16:21:54.014Z,2.62
2017-12-26T16:24:22.139Z,2.70
2017-12-26T16:26:50.291Z,2.75
2017-12-26T16:29:18.418Z,2.53
2017-12-26T16:31:47.329Z,2.40
2017-12-26T16:34:15.457Z,2.80
2017-12-26T16:36:43.607Z,2.22
2017-12-26T16:39:11.741Z,4.18
2017-12-26T16:41:39.898Z,3.78
2017-12-26T16:44:08.251Z,3.17
2017-12-26T16:46:36.405Z,2.70
2017-12-26T16:49:05.297Z,3.35
2017-12-26T16:51:33.501Z,3.78
2017-12-26T16:54:01.631Z,5.70
2017-12-26T16:56:29.793Z,3.00
2017-12-26T16:58:57.917Z,2.95
2017-12-26T17:01:26.070Z,3.20
2017-12-26T17:03:54.218Z,2.80
2017-12-26T17:06:22.372Z,3.17
2017-12-26T17:08:51.266Z,3.10
2017-12-26T17:11:20.199Z,3.00
2017-12-26T17:13:48.357Z,3.33
2017-12-26T17:16:16.498Z,3.33
2017-12-26T17:18:44.639Z,3.22
2017-12-26T17:21:12.786Z,2.85
2017-12-26T17:23:40.918Z,3.37
2017-12-26T17:26:09.840Z,3.03
2017-12-26T17:28:38.747Z,3.80
2017-12-26T17:31:06.918Z,2.95
2017-12-26T17:33:35.080Z,3.12
2017-12-26T17:36:03.226Z,2.75
2017-12-26T17:38:31.345Z,3.80
2017-12-26T17:40:59.494Z,4.03
2017-12-26T17:43:27.622Z,4.37
2017-12-26T17:45:55.861Z,3.25
2017-12-26T17:48:23.989Z,3.35
2017-12-26T17:50:52.217Z,3.55
2017-12-26T17:53:20.511Z,3.72
2017-12-26T17:55:49.426Z,4.87
2017-12-26T17:58:17.724Z,4.40
2017-12-26T18:00:45.846Z,4.35
2017-12-26T18:03:14.004Z,4.62
2017-12-26T18:05:42.129Z,6.12
2017-12-26T18:08:11.049Z,4.57
2017-12-26T18:10:39.220Z,4.47
2017-12-26T18:13:07.470Z,3.45
2017-12-26T18:15:35.585Z,4.57
2017-12-26T18:18:03.741Z,4.40
2017-12-26T18:20:31.882Z,4.28
2017-12-26T18:23:00.042Z,3.00
2017-12-26T18:25:28.185Z,4.65
2017-12-26T18:27:56.347Z,5.90
2017-12-26T18:30:24.486Z,4.10
2017-12-26T18:32:52.683Z,4.60
2017-12-26T18:35:20.845Z,4.05
2017-12-26T18:37:49.006Z,4.25
2017-12-26T18:40:17.128Z,4.20
2017-12-26T18:42:45.316Z,3.60
2017-12-26T18:45:13.478Z,5.00
2017-12-26T18:47:41.660Z,4.60
2017-12-26T18:50:09.778Z,4.60
2017-12-26T18:52:37.950Z,7.43
2017-12-26T18:55:06.830Z,4.78
2017-12-26T18:57:34.991Z,4.82
2017-12-26T19:00:03.198Z,4.35
2017-12-26T19:02:31.360Z,5.07
2017-12-26T19:04:59.548Z,3.60
2017-12-26T19:07:27.714Z,5.82
2017-12-26T19:09:55.856Z,4.90
2017-12-26T19:12:24.394Z,4.90
2017-12-26T19:14:53.221Z,4.07
2017-12-26T19:17:21.378Z,4.20
2017-12-26T19:19:49.506Z,4.40
2017-12-26T19:22:17.698Z,4.93
2017-12-26T19:24:45.887Z,4.18
2017-12-26T19:27:14.037Z,4.97
2017-12-26T19:29:42.152Z,4.37
2017-12-26T19:32:10.308Z,4.30
2017-12-26T19:34:38.441Z,4.12
2017-12-26T19:37:06.588Z,4.90
2017-12-26T19:39:34.712Z,4.80
2017-12-26T19:42:02.860Z,4.40
2017-12-26T19:44:30.994Z,4.78
2017-12-26T19:46:59.140Z,4.57
2017-12-26T19:49:27.278Z,4.60
2017-12-26T19:51:56.192Z,4.80
2017-12-26T19:54:24.325Z,5.25
2017-12-26T19:56:52.492Z,5.03
2017-12-26T19:59:20.632Z,6.32
2017-12-26T20:01:48.786Z,4.70
2017-12-26T20:04:16.909Z,5.43
2017-12-26T20:06:45.082Z,5.85
2017-12-26T20:09:13.235Z,4.62
2017-12-26T20:11:41.364Z,4.75
2017-12-26T20:14:09.519Z,6.85
2017-12-26T20:16:38.411Z,4.43
2017-12-26T20:19:06.611Z,4.40
2017-12-26T20:21:34.816Z,5.40
2017-12-26T20:24:02.963Z,4.15
2017-12-26T20:26:31.126Z,4.53
2017-12-26T20:29:00.077Z,4.95
2017-12-26T20:31:28.222Z,7.35
2017-12-26T20:33:56.675Z,6.03
2017-12-26T20:36:24.809Z,4.85
2017-12-26T20:38:53.001Z,5.05
2017-12-26T20:41:21.895Z,5.15
2017-12-26T20:43:50.087Z,4.80
2017-12-26T20:46:18.234Z,9.82
2017-12-26T20:48:46.399Z,4.57
2017-12-26T20:51:14.536Z,4.12
2017-12-26T20:53:42.701Z,4.18
2017-12-26T20:56:10.829Z,3.78
2017-12-26T20:58:38.989Z,4.18
2017-12-26T21:01:07.122Z,5.30
2017-12-26T21:03:35.268Z,4.30
2017-12-26T21:06:03.406Z,6.15
2017-12-26T21:08:31.561Z,4.87
2017-12-26T21:10:59.739Z,4.87
2017-12-26T21:13:27.864Z,6.35
2017-12-26T21:15:56.003Z,5.50
2017-12-26T21:18:24.155Z,5.43
2017-12-26T21:20:52.294Z,4.68
2017-12-26T21:23:20.453Z,4.75
2017-12-26T21:25:49.349Z,4.53
2017-12-26T21:28:17.512Z,4.70
2017-12-26T21:30:46.413Z,4.85
2017-12-26T21:33:14.561Z,5.87
2017-12-26T21:35:42.706Z,4.60
2017-12-26T21:38:10.861Z,5.90
2017-12-26T21:40:38.984Z,4.95
2017-12-26T21:43:07.129Z,5.40
2017-12-26T21:45:35.253Z,4.72
2017-12-26T21:48:03.423Z,4.85
2017-12-26T21:50:31.554Z,8.32
2017-12-26T21:52:59.708Z,4.90
2017-12-26T21:55:27.847Z,4.97
2017-12-26T21:57:56.006Z,5.10
2017-12-26T22:00:24.134Z,6.15
2017-12-26T22:02:52.382Z,4.45
2017-12-26T22:05:20.528Z,5.40
2017-12-26T22:07:48.677Z,4.40
2017-12-26T22:10:16.794Z,5.12
2017-12-26T22:12:44.961Z,5.93
2017-12-26T22:15:13.090Z,5.05
2017-12-26T22:17:41.240Z,8.70
2017-12-26T22:20:09.355Z,4.62
2017-12-26T22:22:37.537Z,4.35
2017-12-26T22:25:06.434Z,8.20
2017-12-26T22:27:34.553Z,5.53
2017-12-26T22:30:02.726Z,5.22
2017-12-26T22:32:30.888Z,4.72
2017-12-26T22:34:59.049Z,4.57
2017-12-26T22:40:02.982Z,7.55
2017-12-26T22:42:31.126Z,4.82
2017-12-26T22:44:59.286Z,4.65
2017-12-26T22:47:27.435Z,6.68
2017-12-26T22:49:55.596Z,5.60
2017-12-26T22:52:23.718Z,4.62
2017-12-26T22:54:52.637Z,4.30
2017-12-26T22:57:20.772Z,4.65
2017-12-26T22:59:48.925Z,7.43
2017-12-26T23:02:17.065Z,4.93
2017-12-26T23:04:45.213Z,4.70
2017-12-26T23:07:14.099Z,4.45
2017-12-26T23:09:42.251Z,5.45
2017-12-26T23:12:10.375Z,4.87
2017-12-26T23:14:44.089Z,5.15
2017-12-26T23:17:28.920Z,5.20
2017-12-26T23:20:02.824Z,4.70
2017-12-26T23:22:31.704Z,4.40
2017-12-26T23:25:17.556Z,6.18
2017-12-26T23:27:51.250Z,5.43
2017-12-26T23:30:39.237Z,4.30
2017-12-26T23:33:13.085Z,3.83
2017-12-26T23:35:46.843Z,5.22
2017-12-26T23:41:23.333Z,6.45
2017-12-26T23:43:57.217Z,4.00
2017-12-26T23:46:30.930Z,3.53
2017-12-26T23:49:04.824Z,3.25
2017-12-26T23:51:38.685Z,4.25
2017-12-26T23:54:12.430Z,3.33
2017-12-26T23:56:46.117Z,4.15
2017-12-26T23:59:19.958Z,4.57
